Archival Weather

Los Angeles Intl

Los Angeles, California (KLAX)

Report from: Saturday, February 24, 2024 1:53 AM PST
Current time: Tuesday, April 23, 2024 1:03 AM PDT

Current weather – Weather history – Daily summaries
Weather forecast

Temperature13.3°C (55.9°F)
Dew point10.0°C (50.0°F)
Winds 5 kts (2.6 m/s, 5.8 mph) East (100°)
Visibility10 mi. (16.1 km)
Clouds Ceiling: Broken clouds 20,000 ft. (6,096 m)
Altimeter30.03 in.Hg (1017 mB)
Relative humidity80 %
Density altitude-135 ft. (-41 m)
Sea-level pressure101.6 kPa (1016 mB, 30.01 in.Hg)
Remarks Automated weather observing station with precipitation discriminator
Flight conditions Visual Meteorological Conditions
Raw dataKLAX 240953Z 10005KT 10SM BKN200 13/10 A3003 RMK AO2 SLP164 T01330100
An error has occurred. This application may no longer respond until reloaded. Reload 🗙